createdAt,value
2023-03-18T00:02:06.480Z,23.33
2023-03-18T00:04:35.073Z,21.73
2023-03-18T00:07:03.448Z,26.10
2023-03-18T00:09:32.433Z,21.33
2023-03-18T00:12:02.140Z,21.87
2023-03-18T00:14:30.586Z,22.77
2023-03-18T00:16:58.939Z,22.87
2023-03-18T00:19:27.433Z,23.23
2023-03-18T00:21:55.833Z,26.67
2023-03-18T00:24:24.204Z,25.10
2023-03-18T00:26:52.708Z,25.30
2023-03-18T00:29:22.759Z,26.80
2023-03-18T00:31:51.331Z,24.77
2023-03-18T00:34:20.552Z,24.40
2023-03-18T00:36:51.116Z,25.20
2023-03-18T00:39:26.161Z,26.33
2023-03-18T00:41:56.712Z,28.50
2023-03-18T00:44:27.366Z,26.60
2023-03-18T00:46:55.889Z,22.87
2023-03-18T00:49:24.295Z,25.70
2023-03-18T00:51:53.158Z,25.90
2023-03-18T00:54:22.497Z,22.17
2023-03-18T00:56:50.895Z,26.00
2023-03-18T00:59:19.647Z,28.50
2023-03-18T01:01:49.668Z,31.67
2023-03-18T01:04:18.719Z,26.17
2023-03-18T01:06:47.824Z,25.57
2023-03-18T01:09:16.607Z,32.60
2023-03-18T01:11:45.025Z,22.47
2023-03-18T01:14:13.454Z,26.80
2023-03-18T01:16:42.081Z,25.17
2023-03-18T01:19:11.932Z,22.10
2023-03-18T01:21:40.622Z,21.90
2023-03-18T01:24:10.360Z,24.93
2023-03-18T01:26:39.409Z,22.50
2023-03-18T01:29:07.930Z,20.90
2023-03-18T01:31:36.512Z,23.03
2023-03-18T01:34:12.183Z,26.77
2023-03-18T01:36:48.516Z,23.03
2023-03-18T01:39:18.603Z,24.03
2023-03-18T01:41:49.094Z,21.10
2023-03-18T01:44:25.855Z,22.20
2023-03-18T01:46:56.904Z,22.40
2023-03-18T01:49:32.779Z,16.97
2023-03-18T01:52:09.482Z,23.17
2023-03-18T01:54:43.649Z,22.10
2023-03-18T01:57:12.835Z,23.37
2023-03-18T01:59:43.443Z,22.10
2023-03-18T02:02:15.549Z,20.37
2023-03-18T02:04:49.145Z,24.50
2023-03-18T02:07:20.816Z,20.77
2023-03-18T02:09:51.713Z,21.60
2023-03-18T02:12:27.915Z,21.97
2023-03-18T02:15:00.788Z,21.53
2023-03-18T02:17:34.273Z,23.50
2023-03-18T02:20:17.464Z,23.53
2023-03-18T02:22:52.176Z,24.50
2023-03-18T02:25:35.105Z,22.20
2023-03-18T02:28:11.124Z,21.23
2023-03-18T02:30:44.867Z,25.23
2023-03-18T02:33:18.281Z,30.67
2023-03-18T02:35:51.856Z,22.60
2023-03-18T02:38:20.458Z,23.07
2023-03-18T02:40:50.291Z,23.83
2023-03-18T02:43:27.279Z,25.90
2023-03-18T02:46:30.960Z,29.33
2023-03-18T02:49:01.809Z,23.23
2023-03-18T02:51:32.221Z,24.83
2023-03-18T02:54:06.495Z,23.53
2023-03-18T02:56:35.265Z,25.47
2023-03-18T02:59:05.662Z,31.63
2023-03-18T03:01:35.611Z,22.30
2023-03-18T03:04:06.893Z,19.20
2023-03-18T03:06:37.197Z,28.10
2023-03-18T03:09:06.861Z,22.30
2023-03-18T03:11:37.428Z,20.20
2023-03-18T03:14:16.875Z,20.90
2023-03-18T03:16:47.424Z,20.00
2023-03-18T03:19:16.053Z,20.80
2023-03-18T03:21:44.498Z,26.20
2023-03-18T03:24:13.244Z,19.70
2023-03-18T03:26:41.722Z,26.00
2023-03-18T03:29:10.264Z,22.50
2023-03-18T03:31:40.074Z,24.07
2023-03-18T03:34:08.866Z,20.27
2023-03-18T03:36:38.306Z,28.70
2023-03-18T03:39:07.237Z,27.53
2023-03-18T03:41:36.875Z,23.83
2023-03-18T03:44:05.322Z,23.80
2023-03-18T03:46:33.726Z,21.70
2023-03-18T03:49:03.812Z,25.67
2023-03-18T03:51:32.362Z,25.27
2023-03-18T03:54:01.972Z,23.30
2023-03-18T03:56:31.483Z,28.67
2023-03-18T03:59:00.657Z,23.10
2023-03-18T04:01:44.625Z,27.37
2023-03-18T04:04:15.592Z,25.37
2023-03-18T04:06:44.849Z,26.77
2023-03-18T04:09:13.648Z,29.47
2023-03-18T04:11:43.098Z,27.67
2023-03-18T04:14:11.662Z,25.60
2023-03-18T04:16:40.577Z,28.70
2023-03-18T04:19:10.730Z,30.63
2023-03-18T04:21:40.451Z,26.33
2023-03-18T04:24:09.812Z,33.67
2023-03-18T04:26:38.491Z,27.07
2023-03-18T04:29:07.226Z,25.57
2023-03-18T04:31:36.045Z,30.30
2023-03-18T04:34:04.763Z,31.40
2023-03-18T04:36:33.667Z,28.90
2023-03-18T04:39:04.707Z,32.90
2023-03-18T04:41:34.182Z,30.83
2023-03-18T04:44:05.739Z,26.70
2023-03-18T04:46:42.139Z,30.70
2023-03-18T04:49:10.665Z,22.93
2023-03-18T04:51:39.210Z,28.90
2023-03-18T04:54:13.618Z,23.30
2023-03-18T04:56:43.703Z,27.67
2023-03-18T04:59:12.156Z,25.83
2023-03-18T05:01:40.514Z,28.60
2023-03-18T05:04:09.346Z,24.93
2023-03-18T05:06:47.798Z,30.87
2023-03-18T05:09:19.586Z,29.77
2023-03-18T05:11:48.144Z,31.30
2023-03-18T05:14:33.349Z,28.20
2023-03-18T05:17:04.690Z,31.90
2023-03-18T05:19:35.826Z,33.03
2023-03-18T05:22:18.544Z,38.87
2023-03-18T05:24:50.775Z,37.37
2023-03-18T05:27:21.335Z,33.17
2023-03-18T05:29:59.249Z,35.13
2023-03-18T05:32:53.912Z,32.70
2023-03-18T05:35:30.494Z,32.73
2023-03-18T05:37:58.963Z,36.07
2023-03-18T05:40:28.995Z,35.57
2023-03-18T05:43:17.592Z,40.50
2023-03-18T05:45:52.267Z,39.03
2023-03-18T05:48:25.682Z,37.47
2023-03-18T05:50:59.604Z,34.67
2023-03-18T05:53:32.094Z,40.67
2023-03-18T05:56:12.373Z,35.03
2023-03-18T05:58:40.775Z,48.50
2023-03-18T06:01:25.985Z,44.90
2023-03-18T06:03:55.229Z,44.13
2023-03-18T06:06:23.769Z,47.47
2023-03-18T06:08:52.726Z,37.47
2023-03-18T06:11:23.342Z,46.13
2023-03-18T06:13:53.288Z,46.53
2023-03-18T06:16:23.278Z,46.43
2023-03-18T06:18:54.371Z,49.37
2023-03-18T06:21:22.818Z,39.70
2023-03-18T06:23:51.533Z,51.00
2023-03-18T06:26:20.023Z,53.27
2023-03-18T06:28:51.655Z,43.57
2023-03-18T06:31:20.169Z,48.17
2023-03-18T06:33:49.652Z,41.73
2023-03-18T06:36:19.443Z,48.17
2023-03-18T06:38:50.920Z,45.20
2023-03-18T06:41:20.336Z,44.60
2023-03-18T06:44:10.500Z,46.10
2023-03-18T06:46:38.961Z,44.53
2023-03-18T06:49:07.811Z,35.33
2023-03-18T06:51:42.244Z,41.33
2023-03-18T06:54:10.714Z,37.63
2023-03-18T06:56:41.751Z,41.70
2023-03-18T06:59:19.206Z,36.57
2023-03-18T07:01:49.407Z,38.67
2023-03-18T07:04:20.851Z,35.80
2023-03-18T07:06:49.416Z,40.30
2023-03-18T07:09:18.793Z,36.87
2023-03-18T07:11:53.639Z,36.90
2023-03-18T07:14:24.939Z,38.57
2023-03-18T07:16:53.261Z,38.53
2023-03-18T07:19:22.155Z,39.90
2023-03-18T07:21:50.526Z,40.00
2023-03-18T07:24:21.222Z,36.17
2023-03-18T07:26:51.799Z,39.80
2023-03-18T07:29:20.896Z,38.20
2023-03-18T07:31:51.260Z,34.43
2023-03-18T07:34:21.212Z,40.40
2023-03-18T07:36:49.610Z,36.50
2023-03-18T07:39:18.006Z,38.07
2023-03-18T07:41:46.390Z,43.07
2023-03-18T07:44:22.388Z,34.70
2023-03-18T07:46:52.232Z,34.10
2023-03-18T07:49:20.674Z,33.77
2023-03-18T07:51:49.044Z,35.90
2023-03-18T07:54:18.091Z,33.17
2023-03-18T07:56:46.687Z,32.83
2023-03-18T08:01:46.965Z,29.47
2023-03-18T08:04:16.763Z,29.00
2023-03-18T08:06:45.287Z,27.47
2023-03-18T08:09:13.849Z,24.40
2023-03-18T08:11:42.477Z,21.47
2023-03-18T08:14:11.072Z,23.67
2023-03-18T08:16:39.582Z,24.50
2023-03-18T08:19:08.320Z,26.73
2023-03-18T08:21:38.235Z,25.27
2023-03-18T08:24:07.552Z,24.47
2023-03-18T08:26:36.413Z,28.07
2023-03-18T08:29:04.907Z,24.77
2023-03-18T08:31:33.350Z,28.17
2023-03-18T08:34:01.849Z,21.90
2023-03-18T08:36:30.228Z,22.30
2023-03-18T08:39:00.113Z,18.37
2023-03-18T08:41:28.809Z,17.43
2023-03-18T08:43:57.494Z,22.63
2023-03-18T08:46:26.172Z,22.03
2023-03-18T08:48:55.176Z,17.00
2023-03-18T08:51:23.883Z,25.20
2023-03-18T08:53:52.660Z,18.97
2023-03-18T08:56:22.798Z,20.27
2023-03-18T08:58:51.265Z,22.87
2023-03-18T09:01:21.964Z,21.73
2023-03-18T09:03:51.053Z,20.23
2023-03-18T09:06:20.983Z,22.67
2023-03-18T09:15:33.301Z,20.83
2023-03-18T09:18:11.179Z,21.13
2023-03-18T09:20:40.409Z,19.97
2023-03-18T09:23:09.070Z,18.27
2023-03-18T09:25:37.439Z,15.50
2023-03-18T09:28:06.792Z,18.37
2023-03-18T09:30:37.129Z,17.30
2023-03-18T09:33:06.884Z,17.20
2023-03-18T09:35:36.707Z,15.40
2023-03-18T09:38:06.676Z,13.93
2023-03-18T09:40:38.834Z,12.10
2023-03-18T09:43:26.750Z,13.60
2023-03-18T09:46:06.903Z,10.50
2023-03-18T09:48:55.621Z,14.97
2023-03-18T09:51:37.307Z,11.87
2023-03-18T09:54:13.095Z,15.27
2023-03-18T09:56:42.250Z,12.77
2023-03-18T09:59:21.560Z,14.00
2023-03-18T10:01:55.696Z,12.23
2023-03-18T10:04:28.731Z,14.30
2023-03-18T10:07:05.349Z,11.67
2023-03-18T10:09:40.903Z,9.83
2023-03-18T10:12:21.241Z,12.40
2023-03-18T10:15:02.068Z,15.90
2023-03-18T10:17:38.878Z,12.20
2023-03-18T10:20:20.702Z,13.43
2023-03-18T10:23:10.927Z,10.90
2023-03-18T10:25:44.813Z,11.40
2023-03-18T10:28:42.579Z,11.97
2023-03-18T10:31:29.754Z,12.20
2023-03-18T10:34:02.747Z,12.80
2023-03-18T10:36:44.252Z,9.90
2023-03-18T10:39:16.850Z,12.87
2023-03-18T10:41:50.100Z,11.20
2023-03-18T10:44:23.742Z,10.40
2023-03-18T10:47:01.069Z,10.50
2023-03-18T10:49:36.056Z,9.23
2023-03-18T10:52:15.313Z,9.20
2023-03-18T10:54:50.551Z,9.60
2023-03-18T10:57:20.251Z,15.00
2023-03-18T10:59:50.348Z,9.20
2023-03-18T11:02:23.685Z,8.90
2023-03-18T11:04:58.912Z,11.53
2023-03-18T11:07:29.266Z,8.53
2023-03-18T11:10:15.130Z,9.33
2023-03-18T11:12:44.899Z,12.20
2023-03-18T11:15:14.664Z,11.73
2023-03-18T11:17:44.099Z,7.63
2023-03-18T11:20:25.347Z,8.50
2023-03-18T11:22:57.582Z,8.00
2023-03-18T11:25:29.264Z,10.30
2023-03-18T11:28:03.521Z,9.90
2023-03-18T11:30:46.051Z,11.83
2023-03-18T11:33:17.529Z,7.33
2023-03-18T11:35:52.829Z,8.33
2023-03-18T11:38:27.342Z,11.43
2023-03-18T11:41:07.223Z,7.03
2023-03-18T11:43:37.961Z,7.40
2023-03-18T11:46:10.386Z,7.30
2023-03-18T11:48:41.189Z,5.30
2023-03-18T11:51:44.642Z,5.50
2023-03-18T11:54:40.274Z,6.90
2023-03-18T11:57:16.799Z,8.60
2023-03-18T12:00:13.194Z,7.87
2023-03-18T12:03:03.621Z,13.20
2023-03-18T12:05:53.874Z,6.30
2023-03-18T12:08:39.552Z,8.13
2023-03-18T12:11:19.270Z,11.60
2023-03-18T12:14:01.344Z,8.27
2023-03-18T12:16:52.405Z,8.27
2023-03-18T12:19:52.814Z,6.93
2023-03-18T12:22:55.164Z,6.77
2023-03-18T12:26:01.833Z,10.10
2023-03-18T12:28:43.726Z,8.17
2023-03-18T12:31:37.790Z,7.37
2023-03-18T12:34:14.939Z,7.40
2023-03-18T12:36:58.418Z,8.93
2023-03-18T12:40:06.485Z,6.17
2023-03-18T12:42:55.708Z,8.97
2023-03-18T12:45:31.696Z,6.83
2023-03-18T12:48:05.617Z,9.00
2023-03-18T12:50:38.910Z,6.63
2023-03-18T12:53:16.767Z,5.93
2023-03-18T12:55:49.357Z,5.40
2023-03-18T12:58:24.269Z,4.70
2023-03-18T13:01:00.276Z,6.10
2023-03-18T13:03:35.336Z,9.53
2023-03-18T13:06:10.231Z,3.87
2023-03-18T13:09:01.202Z,4.63
2023-03-18T13:11:52.978Z,4.20
2023-03-18T13:14:31.352Z,5.70
2023-03-18T13:17:00.707Z,3.07
2023-03-18T13:19:29.313Z,4.17
2023-03-18T13:22:14.530Z,4.30
2023-03-18T13:25:04.028Z,4.10
2023-03-18T13:27:53.665Z,2.87
2023-03-18T13:30:40.980Z,2.97
2023-03-18T13:33:38.568Z,2.23
2023-03-18T13:36:43.641Z,4.07
2023-03-18T13:39:32.808Z,4.07
2023-03-18T13:42:25.984Z,4.00
2023-03-18T13:45:06.871Z,7.27
2023-03-18T13:47:40.353Z,5.20
2023-03-18T13:50:32.546Z,5.57
2023-03-18T13:53:03.247Z,4.40
2023-03-18T13:55:35.278Z,8.07
2023-03-18T13:58:22.641Z,5.17
2023-03-18T14:01:29.798Z,5.10
2023-03-18T14:04:03.119Z,4.03
2023-03-18T14:06:53.725Z,7.10
2023-03-18T14:09:37.460Z,6.67
2023-03-18T14:12:22.285Z,3.90
2023-03-18T14:15:05.862Z,5.73
2023-03-18T14:17:48.819Z,3.90
2023-03-18T14:20:39.201Z,4.23
2023-03-18T14:23:34.208Z,3.03
2023-03-18T14:26:05.444Z,5.97
2023-03-18T14:28:46.037Z,2.90
2023-03-18T14:31:51.934Z,2.60
2023-03-18T14:34:33.155Z,8.37
2023-03-18T14:37:27.991Z,3.43
2023-03-18T14:40:04.021Z,4.43
2023-03-18T14:42:46.057Z,2.73
2023-03-18T14:45:22.210Z,3.70
2023-03-18T14:47:53.719Z,6.50
2023-03-18T14:50:32.917Z,2.87
2023-03-18T14:53:11.474Z,4.60
2023-03-18T14:55:40.611Z,4.03
2023-03-18T14:58:17.452Z,3.60
2023-03-18T15:00:49.843Z,4.33
2023-03-18T15:03:24.334Z,2.87
2023-03-18T15:05:58.049Z,5.63
2023-03-18T15:08:46.339Z,4.87
2023-03-18T15:11:16.543Z,3.30
2023-03-18T15:13:46.429Z,6.03
2023-03-18T15:16:19.829Z,4.20
2023-03-18T15:18:54.754Z,5.40
2023-03-18T15:21:27.582Z,4.53
2023-03-18T15:24:01.140Z,2.83
2023-03-18T15:26:35.214Z,5.40
2023-03-18T15:29:25.556Z,3.87
2023-03-18T15:31:54.243Z,6.40
2023-03-18T15:34:28.698Z,5.00
2023-03-18T15:37:00.912Z,5.00
2023-03-18T15:39:37.787Z,7.93
2023-03-18T15:42:16.997Z,3.87
2023-03-18T15:44:46.847Z,5.53
2023-03-18T15:47:19.276Z,7.27
2023-03-18T15:49:54.942Z,6.80
2023-03-18T15:52:27.452Z,2.90
2023-03-18T15:54:57.883Z,4.93
2023-03-18T15:57:33.297Z,4.90
2023-03-18T16:00:02.004Z,3.57
2023-03-18T16:02:41.903Z,3.53
2023-03-18T16:05:18.317Z,4.00
2023-03-18T16:07:47.053Z,3.70
2023-03-18T16:10:20.424Z,2.70
2023-03-18T16:12:52.955Z,4.20
2023-03-18T16:15:24.629Z,5.30
2023-03-18T16:17:55.394Z,7.03
2023-03-18T16:20:26.121Z,7.17
2023-03-18T16:22:55.481Z,4.03
2023-03-18T16:25:26.536Z,7.50
2023-03-18T16:27:57.365Z,5.20
2023-03-18T16:30:28.399Z,6.77
2023-03-18T16:32:57.944Z,7.63
2023-03-18T16:35:32.537Z,5.70
2023-03-18T16:38:01.748Z,7.70
2023-03-18T16:40:33.088Z,6.50
2023-03-18T16:43:02.260Z,6.07
2023-03-18T16:45:33.975Z,4.07
2023-03-18T16:48:07.134Z,7.17
2023-03-18T16:50:38.039Z,5.97
2023-03-18T16:53:17.355Z,4.73
2023-03-18T16:55:48.217Z,4.33
2023-03-18T16:58:20.958Z,6.13
2023-03-18T17:00:49.778Z,9.17
2023-03-18T17:03:19.777Z,7.40
2023-03-18T17:05:51.972Z,4.40
2023-03-18T17:08:21.969Z,5.07
2023-03-18T17:10:55.381Z,6.33
2023-03-18T17:13:27.731Z,5.17
2023-03-18T17:15:56.669Z,4.20
2023-03-18T17:18:27.847Z,4.17
2023-03-18T17:20:56.461Z,4.00
2023-03-18T17:23:27.542Z,4.73
2023-03-18T17:26:00.327Z,3.20
2023-03-18T17:28:37.928Z,4.90
2023-03-18T17:31:06.916Z,6.50
2023-03-18T17:33:37.653Z,4.03
2023-03-18T17:36:08.391Z,5.03
2023-03-18T17:38:37.224Z,5.37
2023-03-18T17:41:15.881Z,7.50
2023-03-18T17:43:44.305Z,4.20
2023-03-18T17:46:12.727Z,5.47
2023-03-18T17:48:41.552Z,5.00
2023-03-18T17:51:17.507Z,4.20
2023-03-18T17:53:47.973Z,4.80
2023-03-18T17:56:20.767Z,5.97
2023-03-18T17:58:51.699Z,8.20
2023-03-18T18:01:24.480Z,5.47
2023-03-18T18:03:53.633Z,8.10
2023-03-18T18:06:25.360Z,5.80
2023-03-18T18:08:56.118Z,4.37
2023-03-18T18:11:30.327Z,7.30
2023-03-18T18:14:04.277Z,4.03
2023-03-18T18:16:32.612Z,10.60
2023-03-18T18:19:01.133Z,8.63
2023-03-18T18:21:29.765Z,7.13
2023-03-18T18:23:58.237Z,7.40
2023-03-18T18:26:27.956Z,10.17
2023-03-18T18:28:56.466Z,8.70
2023-03-18T18:31:25.570Z,7.47
2023-03-18T18:33:55.840Z,6.77
2023-03-18T18:36:28.026Z,5.47
2023-03-18T18:38:56.841Z,7.27
2023-03-18T18:41:26.079Z,8.03
2023-03-18T18:43:56.736Z,5.23
2023-03-18T18:46:26.429Z,10.73
2023-03-18T18:48:55.241Z,6.07
2023-03-18T18:51:25.440Z,6.67
2023-03-18T18:53:55.324Z,7.87
2023-03-18T18:56:32.172Z,6.23
2023-03-18T18:59:05.150Z,5.57
2023-03-18T19:01:33.584Z,9.13
2023-03-18T19:04:02.925Z,9.60
2023-03-18T19:06:33.953Z,11.17
2023-03-18T19:09:05.111Z,6.07
2023-03-18T19:11:33.486Z,10.33
2023-03-18T19:14:22.000Z,9.00
2023-03-18T19:16:50.543Z,4.50
2023-03-18T19:19:21.684Z,4.83
2023-03-18T19:21:51.140Z,4.50
2023-03-18T19:24:29.589Z,5.00
2023-03-18T19:27:01.414Z,8.37
2023-03-18T19:29:32.550Z,8.90
2023-03-18T19:32:02.302Z,7.90
2023-03-18T19:34:32.646Z,8.70
2023-03-18T19:37:02.847Z,6.67
2023-03-18T19:39:32.749Z,5.63
2023-03-18T19:42:01.200Z,5.53
2023-03-18T19:44:32.864Z,4.00
2023-03-18T19:47:01.500Z,4.17
2023-03-18T19:49:33.592Z,2.37
2023-03-18T19:52:02.359Z,5.37
2023-03-18T19:54:33.278Z,2.40
2023-03-18T19:57:07.136Z,2.27
2023-03-18T19:59:39.503Z,3.03
2023-03-18T20:02:21.070Z,3.33
2023-03-18T20:04:50.582Z,3.63
2023-03-18T20:07:21.043Z,2.77
2023-03-18T20:09:50.115Z,5.07
2023-03-18T20:12:26.099Z,2.10
2023-03-18T20:14:56.164Z,3.33
2023-03-18T20:17:40.824Z,3.30
2023-03-18T20:20:15.468Z,6.23
2023-03-18T20:22:48.184Z,1.83
2023-03-18T20:25:24.553Z,2.57
2023-03-18T20:27:56.200Z,1.97
2023-03-18T20:30:30.817Z,2.27
2023-03-18T20:33:00.170Z,2.53
2023-03-18T20:35:31.504Z,2.83
2023-03-18T20:38:04.853Z,2.70
2023-03-18T20:40:34.172Z,5.03
2023-03-18T20:43:02.844Z,3.57
2023-03-18T20:45:33.201Z,3.17
2023-03-18T20:48:01.686Z,4.20
2023-03-18T20:50:31.001Z,2.63
2023-03-18T20:52:59.719Z,3.30
2023-03-18T20:55:31.844Z,5.70
2023-03-18T20:58:01.746Z,6.20
2023-03-18T21:00:34.286Z,8.80
2023-03-18T21:03:04.141Z,3.90
2023-03-18T21:05:32.755Z,4.93
2023-03-18T21:08:01.363Z,4.60
2023-03-18T21:10:29.842Z,3.80
2023-03-18T21:12:58.314Z,2.97
2023-03-18T21:15:29.142Z,6.80
2023-03-18T21:17:59.886Z,4.40
2023-03-18T21:20:31.547Z,5.93
2023-03-18T21:23:00.106Z,3.97
2023-03-18T21:25:29.733Z,6.20
2023-03-18T21:27:58.457Z,3.93
2023-03-18T21:30:27.657Z,5.17
2023-03-18T21:32:56.318Z,4.57
2023-03-18T21:35:28.798Z,3.80
2023-03-18T21:37:57.131Z,4.17
2023-03-18T21:40:26.465Z,6.67
2023-03-18T21:42:54.893Z,10.23
2023-03-18T21:45:24.704Z,3.50
2023-03-18T21:47:53.564Z,4.30
2023-03-18T21:50:26.764Z,3.50
2023-03-18T21:52:56.127Z,5.80
2023-03-18T21:55:24.533Z,5.70
2023-03-18T21:57:52.927Z,3.60
2023-03-18T22:00:22.605Z,4.33
2023-03-18T22:02:51.580Z,6.70
2023-03-18T22:05:23.036Z,4.70
2023-03-18T22:07:52.996Z,9.83
2023-03-18T22:10:24.029Z,10.60
2023-03-18T22:12:52.779Z,7.07
2023-03-18T22:15:40.593Z,4.47
2023-03-18T22:18:09.210Z,4.70
2023-03-18T22:20:39.078Z,6.63
2023-03-18T22:23:19.366Z,6.13
2023-03-18T22:25:50.786Z,4.30
2023-03-18T22:28:20.415Z,5.40
2023-03-18T22:30:55.315Z,4.67
2023-03-18T22:33:28.626Z,7.83
2023-03-18T22:35:57.631Z,9.03
2023-03-18T22:38:28.112Z,6.50
2023-03-18T22:40:58.598Z,5.17
2023-03-18T22:43:31.980Z,6.90
2023-03-18T22:46:02.043Z,5.67
2023-03-18T22:48:30.496Z,5.10
2023-03-18T22:51:00.151Z,6.47
2023-03-18T22:53:34.413Z,6.53
2023-03-18T22:56:09.267Z,5.10
2023-03-18T22:58:38.129Z,6.40
2023-03-18T23:01:07.710Z,8.03
2023-03-18T23:03:40.405Z,7.00
2023-03-18T23:06:12.547Z,6.30
2023-03-18T23:08:42.654Z,7.27
2023-03-18T23:11:11.432Z,8.13
2023-03-18T23:13:42.371Z,6.70
2023-03-18T23:16:16.061Z,9.27
2023-03-18T23:18:44.742Z,7.03
2023-03-18T23:21:18.148Z,9.50
2023-03-18T23:23:48.389Z,10.80
2023-03-18T23:26:17.419Z,7.37
2023-03-18T23:28:46.182Z,8.37
2023-03-18T23:31:14.806Z,8.17
2023-03-18T23:33:43.824Z,6.57
2023-03-18T23:36:12.656Z,10.67
2023-03-18T23:38:41.837Z,8.03
2023-03-18T23:41:11.725Z,6.57
2023-03-18T23:43:40.083Z,11.40
2023-03-18T23:46:08.590Z,9.87
2023-03-18T23:48:36.984Z,10.10
2023-03-18T23:51:05.695Z,9.97
2023-03-18T23:53:34.101Z,13.23
2023-03-18T23:56:02.688Z,10.13
2023-03-18T23:58:32.328Z,13.20
